Overview Statistics Trail Chart Weather Telemetry Raw packets
 

This is the latest recevied weather packets stored in our database for station/object DO1BDB-12. If no packets are shown the sender has not sent any weather packets the latest 10 day(s).

<< 362 363 364 365 366 367 368 >>
Time Temp. Humidity Pressure Rain* Wind** Luminosity Snow
1788075213 22.78° C 62% 100.7 hPa - - - -
1788075135 23.33° C 62% 100.7 hPa - - - -
1788075069 22.78° C 63% 100.7 hPa - - - -
1788075004 23.89° C 60% 100.7 hPa - - - -
1788074938 23.89° C 60% 100.7 hPa - - - -
1788074872 25° C 56% 100.7 hPa - - - -
1788074807 25.56° C 56% 100.7 hPa - - - -
1788074740 24.44° C 57% 100.7 hPa - - - -
1788074674 25° C 56% 100.7 hPa - - - -
1788074609 25° C 58% 100.7 hPa - - - -
1788074543 22.78° C 64% 100.7 hPa - - - -
1788074488 21.67° C 66% 100.7 hPa - - - -
1788074411 21.11° C 69% 100.7 hPa - - - -
1788074345 22.22° C 66% 100.7 hPa - - - -
1788074280 22.78° C 63% 100.7 hPa - - - -
1788074214 22.78° C 64% 100.7 hPa - - - -
1788074148 21.67° C 69% 100.7 hPa - - - -
1788074082 20.56° C 72% 100.7 hPa - - - -
1788074016 20° C 72% 100.7 hPa - - - -
1788073950 20.56° C 74% 100.7 hPa - - - -
1788073884 20.56° C 74% 100.7 hPa - - - -
1788073819 20° C 73% 100.7 hPa - - - -
1788073753 20.56° C 73% 100.7 hPa - - - -
1788073687 20° C 73% 100.7 hPa - - - -
1788073621 20.56° C 72% 100.7 hPa - - - -

* Rain since midnight (hover to see other rain measurements)
** Current wind speed in m/s (hover to see current wind gust speed)